Delta, AL

1:44 PM CDT on September 19, 2014 (GMT -0500)
Swagg Cove | Change Station
CLOSE
Current Station
Personal Weather Station
Location: Wedowee, AL
Elevation: 801 ft
Nearby Weather Stations

Elev 801 ft 33.35 °N, 85.55 °W | Updated 3 minutes ago

Overcast
Overcast
83.1 °F
Feels Like 84 °F
N
1.6
Wind Variable Wind from ENE
Gusts 10.7 mph

Today
High -- | Low -- °F
--% Chance of Precip.
Yesterday
High -- | Low -- °F
Precip. -- in
6:28 AM 6:43 PM
Waning Crescent, 17% visible
Pressure 30.03 in
Visibility 10.0 miles
Clouds Scattered Clouds 4300 ft
Mostly Cloudy 6000 ft
Overcast 8000 ft
Heat Index 84 °F
Dew Point 62 °F
Humidity 49%
Rainfall 0.00 in
Snow Depth Not available.
UV 3 out of 12
Pollen 8.20 out of 12
Air Quality Not available.
Flu Activity Not available.
METAR KANB 191753Z AUTO 05006KT 10SM -TSRA SCT043 BKN060 OVC080 25/19 A3005 RMK AO2 LTG DSNT NE RAB49 TSB39 SLP167 P0000 60000 T02500189 10294 20200 58006

More Conditions Fewer Conditions

Pressure 30.03 in
Visibility 10.0 miles
Clouds Scattered Clouds 4300 ft
Mostly Cloudy 6000 ft
Overcast 8000 ft
Heat Index 84 °F
Dew Point 62 °F
Humidity 49%
Rainfall 0.00 in
Snow Depth Not available.
UV 3 out of 12
Pollen 8.20 out of 12
Air Quality Not available.
Flu Activity Not available.
METAR KANB 191753Z AUTO 05006KT 10SM -TSRA SCT043 BKN060 OVC080 25/19 A3005 RMK AO2 LTG DSNT NE RAB49 TSB39 SLP167 P0000 60000 T02500189 10294 20200 58006

More Conditions Fewer Conditions

10-Day Weather Forecast

Almanac

Astronomy

Sep. 19, 2014 Rise Set
Actual Time 6:28 AM CDT 6:43 PM CDT
Civil Twilight 6:04 AM CDT 7:08 PM CDT
Nautical Twilight 5:34 AM CDT 7:37 PM CDT
Astronomical Twilight 5:05 AM CDT 8:06 PM CDT
Moon 2:23 AM CDT 4:03 PM CDT
Length of Visible Light 13h 04m
Length of Day
12h 14m
Tomorrow will be 2m 3s shorter.
Waning Crescent, 17% of the Moon is Illuminated
Today
Waning Crescent
Sep 24
New
Oct 1
First Quarter
Oct 8
Full
Oct 15
Last Quarter

Today's Extremes

State Highs State Lows

Community

WunderPhotos

Upload Photos

1,754,680 photos uploaded!

WunderBlogs® & News

Nearby

Snow Depth

Station Depth Elevation
No new snow has been reported.

Earthquake Activity

City Distance Mag. Time & Date
No recent earthquake activity has been reported nearby.
Minimum magnitude displayed is 2.5.

Coastal Water Temperatures

Place Temperature
No Stations Reporting

Nearby Weather Stations